sensor_id;sensor_type;location;lat;lon;timestamp;pressure;altitude;pressure_sealevel;temperature;humidity
61786;BME280;47692;53.714;11.372;2023-07-29T00:00:30;100195.50;;;15.91;100.00
61786;BME280;47692;53.714;11.372;2023-07-29T00:02:56;100188.53;;;15.90;100.00
61786;BME280;47692;53.714;11.372;2023-07-29T00:05:21;100186.28;;;15.99;100.00
61786;BME280;47692;53.714;11.372;2023-07-29T00:07:46;100186.38;;;15.98;100.00
61786;BME280;47692;53.714;11.372;2023-07-29T00:10:12;100183.88;;;15.95;100.00
61786;BME280;47692;53.714;11.372;2023-07-29T00:12:37;100185.00;;;15.91;100.00
61786;BME280;47692;53.714;11.372;2023-07-29T00:15:02;100171.38;;;15.82;100.00
61786;BME280;47692;53.714;11.372;2023-07-29T00:17:28;100168.81;;;15.81;100.00
61786;BME280;47692;53.714;11.372;2023-07-29T00:19:53;100176.09;;;15.76;100.00
61786;BME280;47692;53.714;11.372;2023-07-29T00:22:19;100180.66;;;15.72;100.00
61786;BME280;47692;53.714;11.372;2023-07-29T00:24:44;100180.53;;;15.75;100.00
61786;BME280;47692;53.714;11.372;2023-07-29T00:27:09;100181.75;;;15.86;100.00
61786;BME280;47692;53.714;11.372;2023-07-29T00:29:35;100185.00;;;15.91;100.00
61786;BME280;47692;53.714;11.372;2023-07-29T00:32:00;100183.28;;;15.90;100.00
61786;BME280;47692;53.714;11.372;2023-07-29T00:34:25;100180.56;;;15.91;100.00
61786;BME280;47692;53.714;11.372;2023-07-29T00:36:50;100182.97;;;15.96;100.00
61786;BME280;47692;53.714;11.372;2023-07-29T00:39:16;100183.31;;;16.06;100.00
61786;BME280;47692;53.714;11.372;2023-07-29T00:41:41;100180.53;;;16.09;100.00
61786;BME280;47692;53.714;11.372;2023-07-29T00:44:07;100190.63;;;16.17;100.00
61786;BME280;47692;53.714;11.372;2023-07-29T00:46:34;100184.84;;;16.26;100.00
61786;BME280;47692;53.714;11.372;2023-07-29T00:49:00;100186.19;;;16.17;100.00
61786;BME280;47692;53.714;11.372;2023-07-29T00:51:26;100181.03;;;16.15;100.00
61786;BME280;47692;53.714;11.372;2023-07-29T00:53:52;100175.44;;;16.22;100.00
61786;BME280;47692;53.714;11.372;2023-07-29T00:56:17;100167.53;;;16.22;100.00
61786;BME280;47692;53.714;11.372;2023-07-29T00:58:43;100164.91;;;16.22;100.00
61786;BME280;47692;53.714;11.372;2023-07-29T01:01:09;100154.94;;;16.27;100.00
61786;BME280;47692;53.714;11.372;2023-07-29T01:03:35;100159.28;;;16.28;100.00
61786;BME280;47692;53.714;11.372;2023-07-29T01:06:13;100160.22;;;16.27;100.00
61786;BME280;47692;53.714;11.372;2023-07-29T01:14:39;100149.44;;;16.31;100.00
61786;BME280;47692;53.714;11.372;2023-07-29T01:17:09;100142.88;;;16.39;100.00
61786;BME280;47692;53.714;11.372;2023-07-29T01:20:08;100142.88;;;16.55;100.00
61786;BME280;47692;53.714;11.372;2023-07-29T01:22:35;100143.59;;;16.73;100.00
61786;BME280;47692;53.714;11.372;2023-07-29T01:25:01;100142.03;;;16.85;100.00
61786;BME280;47692;53.714;11.372;2023-07-29T01:27:27;100136.81;;;16.99;100.00
61786;BME280;47692;53.714;11.372;2023-07-29T01:29:54;100140.50;;;16.96;100.00
61786;BME280;47692;53.714;11.372;2023-07-29T01:32:37;100133.94;;;16.88;100.00
61786;BME280;47692;53.714;11.372;2023-07-29T01:35:19;100133.94;;;16.88;100.00
61786;BME280;47692;53.714;11.372;2023-07-29T01:37:55;100133.94;;;16.88;100.00
61786;BME280;47692;53.714;11.372;2023-07-29T01:40:23;100142.78;;;16.87;100.00
61786;BME280;47692;53.714;11.372;2023-07-29T01:42:49;100135.66;;;16.89;100.00
61786;BME280;47692;53.714;11.372;2023-07-29T01:45:15;100138.53;;;17.00;100.00
61786;BME280;47692;53.714;11.372;2023-07-29T01:47:41;100133.63;;;16.94;100.00
61786;BME280;47692;53.714;11.372;2023-07-29T01:50:07;100138.38;;;16.87;100.00
61786;BME280;47692;53.714;11.372;2023-07-29T01:52:33;100139.06;;;16.91;100.00
61786;BME280;47692;53.714;11.372;2023-07-29T01:54:58;100141.44;;;16.95;100.00
61786;BME280;47692;53.714;11.372;2023-07-29T01:57:23;100142.78;;;16.87;100.00
61786;BME280;47692;53.714;11.372;2023-07-29T01:59:48;100148.94;;;16.87;100.00
61786;BME280;47692;53.714;11.372;2023-07-29T02:02:14;100148.25;;;16.84;100.00
61786;BME280;47692;53.714;11.372;2023-07-29T02:04:39;100135.66;;;16.89;100.00
61786;BME280;47692;53.714;11.372;2023-07-29T02:07:04;100150.22;;;16.96;100.00
61786;BME280;47692;53.714;11.372;2023-07-29T02:09:30;100154.00;;;16.90;100.00
61786;BME280;47692;53.714;11.372;2023-07-29T02:11:56;100146.03;;;16.92;100.00
61786;BME280;47692;53.714;11.372;2023-07-29T02:14:22;100139.91;;;16.91;100.00
61786;BME280;47692;53.714;11.372;2023-07-29T02:16:47;100138.38;;;16.87;100.00
61786;BME280;47692;53.714;11.372;2023-07-29T02:19:13;100137.84;;;16.96;100.00
61786;BME280;47692;53.714;11.372;2023-07-29T02:21:38;100140.22;;;17.01;100.00
61786;BME280;47692;53.714;11.372;2023-07-29T02:24:04;100135.47;;;16.92;100.00
61786;BME280;47692;53.714;11.372;2023-07-29T02:26:29;100130.03;;;16.95;100.00
61786;BME280;47692;53.714;11.372;2023-07-29T02:28:54;100134.66;;;16.91;100.00
61786;BME280;47692;53.714;11.372;2023-07-29T02:31:24;100133.78;;;16.91;100.00
61786;BME280;47692;53.714;11.372;2023-07-29T02:33:50;100136.94;;;16.82;100.00
61786;BME280;47692;53.714;11.372;2023-07-29T02:36:16;100137.88;;;16.80;100.00
61786;BME280;47692;53.714;11.372;2023-07-29T02:38:42;100130.25;;;16.76;100.00
61786;BME280;47692;53.714;11.372;2023-07-29T02:41:09;100121.38;;;16.77;100.00
61786;BME280;47692;53.714;11.372;2023-07-29T02:43:35;100126.94;;;16.72;100.00
61786;BME280;47692;53.714;11.372;2023-07-29T02:46:01;100128.63;;;16.73;100.00
61786;BME280;47692;53.714;11.372;2023-07-29T02:48:26;100124.66;;;16.66;100.00
61786;BME280;47692;53.714;11.372;2023-07-29T02:50:53;100120.91;;;16.70;100.00
61786;BME280;47692;53.714;11.372;2023-07-29T02:53:18;100119.88;;;16.73;100.00
61786;BME280;47692;53.714;11.372;2023-07-29T02:55:44;100111.88;;;16.74;100.00
61786;BME280;47692;53.714;11.372;2023-07-29T02:58:09;100114.13;;;16.66;100.00
61786;BME280;47692;53.714;11.372;2023-07-29T03:00:34;100114.63;;;16.57;100.00
61786;BME280;47692;53.714;11.372;2023-07-29T03:03:00;100111.06;;;16.58;100.00
61786;BME280;47692;53.714;11.372;2023-07-29T03:05:29;100115.22;;;16.62;100.00
61786;BME280;47692;53.714;11.372;2023-07-29T03:07:54;100095.59;;;16.52;100.00
61786;BME280;47692;53.714;11.372;2023-07-29T03:10:20;100104.63;;;16.47;100.00
61786;BME280;47692;53.714;11.372;2023-07-29T03:12:46;100099.97;;;16.37;100.00
61786;BME280;47692;53.714;11.372;2023-07-29T03:15:12;100097.69;;;16.30;100.00
61786;BME280;47692;53.714;11.372;2023-07-29T03:17:37;100093.34;;;16.29;100.00
61786;BME280;47692;53.714;11.372;2023-07-29T03:20:03;100084.03;;;16.24;100.00
61786;BME280;47692;53.714;11.372;2023-07-29T03:22:28;100081.56;;;16.21;100.00
61786;BME280;47692;53.714;11.372;2023-07-29T03:24:54;100081.88;;;16.14;100.00
61786;BME280;47692;53.714;11.372;2023-07-29T03:27:19;100080.53;;;16.07;100.00
61786;BME280;47692;53.714;11.372;2023-07-29T03:29:44;100075.25;;;16.07;100.00
61786;BME280;47692;53.714;11.372;2023-07-29T03:32:11;100075.59;;;16.17;100.00
61786;BME280;47692;53.714;11.372;2023-07-29T03:34:36;100076.13;;;16.24;100.00
61786;BME280;47692;53.714;11.372;2023-07-29T03:37:01;100081.72;;;16.18;100.00
61786;BME280;47692;53.714;11.372;2023-07-29T03:39:27;100083.75;;;16.12;100.00
61786;BME280;47692;53.714;11.372;2023-07-29T03:41:52;100091.75;;;16.11;100.00
61786;BME280;47692;53.714;11.372;2023-07-29T03:44:18;100084.13;;;16.06;100.00
61786;BME280;47692;53.714;11.372;2023-07-29T03:46:44;100089.88;;;15.97;100.00
61786;BME280;47692;53.714;11.372;2023-07-29T03:49:09;100089.06;;;15.96;100.00
61786;BME280;47692;53.714;11.372;2023-07-29T03:51:34;100092.63;;;15.95;100.00
61786;BME280;47692;53.714;11.372;2023-07-29T03:54:00;100098.56;;;15.99;100.00
61786;BME280;47692;53.714;11.372;2023-07-29T03:56:25;100097.63;;;16.00;100.00
61786;BME280;47692;53.714;11.372;2023-07-29T03:58:52;100100.06;;;16.03;100.00
61786;BME280;47692;53.714;11.372;2023-07-29T04:01:17;100095.59;;;16.05;100.00
61786;BME280;47692;53.714;11.372;2023-07-29T04:03:42;100101.34;;;16.12;100.00
61786;BME280;47692;53.714;11.372;2023-07-29T04:06:08;100089.88;;;16.13;100.00
61786;BME280;47692;53.714;11.372;2023-07-29T04:08:33;100093.78;;;16.22;100.00
61786;BME280;47692;53.714;11.372;2023-07-29T04:10:58;100089.69;;;16.32;100.00
61786;BME280;47692;53.714;11.372;2023-07-29T04:13:25;100090.00;;;16.42;100.00
61786;BME280;47692;53.714;11.372;2023-07-29T04:15:50;100095.59;;;16.52;100.00
61786;BME280;47692;53.714;11.372;2023-07-29T04:18:15;100106.28;;;16.64;100.00
61786;BME280;47692;53.714;11.372;2023-07-29T04:20:41;100096.97;;;16.73;100.00
61786;BME280;47692;53.714;11.372;2023-07-29T04:23:06;100093.00;;;16.82;100.00
61786;BME280;47692;53.714;11.372;2023-07-29T04:25:31;100093.00;;;16.82;100.00
61786;BME280;47692;53.714;11.372;2023-07-29T04:27:56;100099.09;;;16.83;100.00
61786;BME280;47692;53.714;11.372;2023-07-29T04:30:23;100099.09;;;16.83;100.00
61786;BME280;47692;53.714;11.372;2023-07-29T04:32:48;100099.88;;;16.85;100.00
61786;BME280;47692;53.714;11.372;2023-07-29T04:35:14;100092.88;;;16.84;100.00
61786;BME280;47692;53.714;11.372;2023-07-29T04:37:39;100092.31;;;16.78;100.00
61786;BME280;47692;53.714;11.372;2023-07-29T04:40:06;100088.91;;;16.76;100.00
61786;BME280;47692;53.714;11.372;2023-07-29T04:42:31;100090.25;;;16.84;100.00
61786;BME280;47692;53.714;11.372;2023-07-29T04:44:57;100084.13;;;16.83;100.00
61786;BME280;47692;53.714;11.372;2023-07-29T04:47:22;100077.81;;;16.86;100.00
61786;BME280;47692;53.714;11.372;2023-07-29T04:49:48;100077.81;;;16.86;100.00
61786;BME280;47692;53.714;11.372;2023-07-29T04:52:13;100072.53;;;16.86;100.00
61786;BME280;47692;53.714;11.372;2023-07-29T04:54:40;100073.31;;;16.88;100.00
61786;BME280;47692;53.714;11.372;2023-07-29T04:57:05;100077.47;;;16.92;100.00
61786;BME280;47692;53.714;11.372;2023-07-29T04:59:30;100069.31;;;16.96;100.00
61786;BME280;47692;53.714;11.372;2023-07-29T05:01:56;100075.25;;;17.00;100.00
61786;BME280;47692;53.714;11.372;2023-07-29T05:04:21;100053.59;;;17.09;100.00
61786;BME280;47692;53.714;11.372;2023-07-29T05:06:46;100061.22;;;17.14;100.00
61786;BME280;47692;53.714;11.372;2023-07-29T05:09:13;100058.97;;;17.22;100.00
61786;BME280;47692;53.714;11.372;2023-07-29T05:11:41;100061.50;;;17.24;100.00
61786;BME280;47692;53.714;11.372;2023-07-29T05:14:07;100053.13;;;17.32;100.00
61786;BME280;47692;53.714;11.372;2023-07-29T05:16:34;100060.97;;;17.33;100.00
61786;BME280;47692;53.714;11.372;2023-07-29T05:18:59;100064.53;;;17.32;100.00
61786;BME280;47692;53.714;11.372;2023-07-29T05:21:24;100058.41;;;17.32;100.00
61786;BME280;47692;53.714;11.372;2023-07-29T05:23:49;100045.22;;;17.32;100.00
61786;BME280;47692;53.714;11.372;2023-07-29T05:26:15;100061.41;;;17.40;100.00
61786;BME280;47692;53.714;11.372;2023-07-29T05:28:40;100057.84;;;17.41;100.00
61786;BME280;47692;53.714;11.372;2023-07-29T05:31:05;100060.59;;;17.39;100.00
61786;BME280;47692;53.714;11.372;2023-07-29T05:33:31;100072.06;;;17.53;100.00
61786;BME280;47692;53.714;11.372;2023-07-29T05:35:56;100057.09;;;17.53;100.00
61786;BME280;47692;53.714;11.372;2023-07-29T05:38:22;100061.13;;;17.59;100.00
61786;BME280;47692;53.714;11.372;2023-07-29T05:40:48;100060.38;;;17.57;100.00
61786;BME280;47692;53.714;11.372;2023-07-29T05:43:13;100053.97;;;17.61;100.00
61786;BME280;47692;53.714;11.372;2023-07-29T05:45:39;100053.78;;;17.64;100.00
61786;BME280;47692;53.714;11.372;2023-07-29T05:48:05;100059.44;;;17.58;100.00
61786;BME280;47692;53.714;11.372;2023-07-29T05:50:30;100057.53;;;17.60;100.00
61786;BME280;47692;53.714;11.372;2023-07-29T05:52:55;100055.44;;;17.65;100.00
61786;BME280;47692;53.714;11.372;2023-07-29T05:55:20;100058.41;;;17.60;100.00
61786;BME280;47692;53.714;11.372;2023-07-29T05:57:46;100050.00;;;17.68;100.00
61786;BME280;47692;53.714;11.372;2023-07-29T06:00:11;100053.19;;;17.73;100.00
61786;BME280;47692;53.714;11.372;2023-07-29T06:02:37;100056.19;;;17.82;100.00
61786;BME280;47692;53.714;11.372;2023-07-29T06:05:02;100067.50;;;17.84;100.00
61786;BME280;47692;53.714;11.372;2023-07-29T06:07:29;100055.34;;;17.81;100.00
61786;BME280;47692;53.714;11.372;2023-07-29T06:09:55;100064.28;;;17.79;100.00
61786;BME280;47692;53.714;11.372;2023-07-29T06:12:21;100055.53;;;17.78;100.00
61786;BME280;47692;53.714;11.372;2023-07-29T06:14:46;100057.25;;;17.79;100.00
61786;BME280;47692;53.714;11.372;2023-07-29T06:17:11;100049.13;;;17.82;100.00
61786;BME280;47692;53.714;11.372;2023-07-29T06:19:37;100045.81;;;17.79;100.00
61786;BME280;47692;53.714;11.372;2023-07-29T06:22:03;100043.06;;;17.80;100.00
61786;BME280;47692;53.714;11.372;2023-07-29T06:24:29;100037.78;;;17.80;100.00
61786;BME280;47692;53.714;11.372;2023-07-29T06:26:54;100036.75;;;17.83;100.00
61786;BME280;47692;53.714;11.372;2023-07-29T06:29:20;100033.41;;;17.93;100.00
61786;BME280;47692;53.714;11.372;2023-07-29T06:31:45;100032.59;;;17.93;100.00
61786;BME280;47692;53.714;11.372;2023-07-29T06:34:10;100039.66;;;17.92;100.00
61786;BME280;47692;53.714;11.372;2023-07-29T06:36:35;100046.09;;;17.88;100.00
61786;BME280;47692;53.714;11.372;2023-07-29T06:39:01;100054.09;;;17.87;100.00
61786;BME280;47692;53.714;11.372;2023-07-29T06:41:26;100050.72;;;17.99;100.00
61786;BME280;47692;53.714;11.372;2023-07-29T06:43:51;100053.91;;;18.04;100.00
61786;BME280;47692;53.714;11.372;2023-07-29T06:46:16;100045.56;;;18.11;100.00
61786;BME280;47692;53.714;11.372;2023-07-29T06:48:42;100042.84;;;18.25;100.00
61786;BME280;47692;53.714;11.372;2023-07-29T06:51:07;100051.34;;;18.30;100.00
61786;BME280;47692;53.714;11.372;2023-07-29T06:53:33;100044.25;;;18.31;100.00
61786;BME280;47692;53.714;11.372;2023-07-29T06:55:58;100048.09;;;18.39;100.00
61786;BME280;47692;53.714;11.372;2023-07-29T06:58:24;100044.41;;;18.42;100.00
61786;BME280;47692;53.714;11.372;2023-07-29T07:00:49;100047.56;;;18.47;100.00
61786;BME280;47692;53.714;11.372;2023-07-29T07:03:14;100047.16;;;18.53;100.00
61786;BME280;47692;53.714;11.372;2023-07-29T07:05:39;100054.78;;;18.58;100.00
61786;BME280;47692;53.714;11.372;2023-07-29T07:08:05;100040.41;;;18.49;100.00
61786;BME280;47692;53.714;11.372;2023-07-29T07:10:30;100052.84;;;18.47;100.00
61786;BME280;47692;53.714;11.372;2023-07-29T07:12:55;100050.44;;;18.44;100.00
61786;BME280;47692;53.714;11.372;2023-07-29T07:15:21;100048.03;;;18.54;100.00
61786;BME280;47692;53.714;11.372;2023-07-29T07:17:46;100048.97;;;18.53;100.00
61786;BME280;47692;53.714;11.372;2023-07-29T07:20:12;100057.03;;;18.64;100.00
61786;BME280;47692;53.714;11.372;2023-07-29T07:22:37;100050.81;;;18.65;100.00
61786;BME280;47692;53.714;11.372;2023-07-29T07:25:03;100049.63;;;18.69;100.00
61786;BME280;47692;53.714;11.372;2023-07-29T07:27:28;100050.38;;;18.71;100.00
61786;BME280;47692;53.714;11.372;2023-07-29T07:29:53;100048.03;;;18.80;100.00
61786;BME280;47692;53.714;11.372;2023-07-29T07:32:18;100045.97;;;18.85;100.00
61786;BME280;47692;53.714;11.372;2023-07-29T07:34:44;100044.03;;;18.87;100.00
61786;BME280;47692;53.714;11.372;2023-07-29T07:37:09;100050.03;;;19.03;100.00
61786;BME280;47692;53.714;11.372;2023-07-29T07:39:34;100035.00;;;19.04;100.00
61786;BME280;47692;53.714;11.372;2023-07-29T07:42:00;100031.72;;;19.00;100.00
61786;BME280;47692;53.714;11.372;2023-07-29T07:44:25;100026.81;;;19.07;100.00
61786;BME280;47692;53.714;11.372;2023-07-29T07:46:52;100030.94;;;19.24;100.00
61786;BME280;47692;53.714;11.372;2023-07-29T07:49:17;100031.03;;;19.35;100.00
61786;BME280;47692;53.714;11.372;2023-07-29T07:51:43;100028.38;;;19.48;100.00
61786;BME280;47692;53.714;11.372;2023-07-29T07:54:09;100028.59;;;19.45;100.00
61786;BME280;47692;53.714;11.372;2023-07-29T07:56:34;100031.88;;;19.49;100.00
61786;BME280;47692;53.714;11.372;2023-07-29T07:59:00;100027.09;;;19.54;100.00
61786;BME280;47692;53.714;11.372;2023-07-29T08:01:25;100028.13;;;19.64;100.00
61786;BME280;47692;53.714;11.372;2023-07-29T08:03:50;100028.53;;;19.71;100.00
61786;BME280;47692;53.714;11.372;2023-07-29T08:06:15;100018.13;;;19.81;100.00
61786;BME280;47692;53.714;11.372;2023-07-29T08:08:41;100018.13;;;19.81;100.00
61786;BME280;47692;53.714;11.372;2023-07-29T08:11:06;100009.53;;;19.90;100.00
61786;BME280;47692;53.714;11.372;2023-07-29T08:13:31;100014.28;;;19.98;100.00
61786;BME280;47692;53.714;11.372;2023-07-29T08:15:57;100015.72;;;20.02;100.00
61786;BME280;47692;53.714;11.372;2023-07-29T08:18:22;100026.38;;;20.13;100.00
61786;BME280;47692;53.714;11.372;2023-07-29T08:20:55;100023.03;;;20.23;100.00
61786;BME280;47692;53.714;11.372;2023-07-29T08:23:21;100031.88;;;20.34;100.00
61786;BME280;47692;53.714;11.372;2023-07-29T08:26:01;100025.28;;;20.40;100.00
61786;BME280;47692;53.714;11.372;2023-07-29T08:28:32;100024.72;;;20.48;100.00
61786;BME280;47692;53.714;11.372;2023-07-29T08:30:58;100021.13;;;20.60;100.00
61786;BME280;47692;53.714;11.372;2023-07-29T08:33:23;100029.78;;;20.62;100.00
61786;BME280;47692;53.714;11.372;2023-07-29T08:35:49;100029.31;;;20.69;100.00
61786;BME280;47692;53.714;11.372;2023-07-29T08:38:14;100020.41;;;20.70;99.59
61786;BME280;47692;53.714;11.372;2023-07-29T08:40:48;100022.00;;;20.72;99.04
61786;BME280;47692;53.714;11.372;2023-07-29T08:43:16;100014.81;;;20.86;99.96
61786;BME280;47692;53.714;11.372;2023-07-29T08:45:43;100018.19;;;20.88;96.28
61786;BME280;47692;53.714;11.372;2023-07-29T08:48:10;100008.19;;;20.91;94.81
61786;BME280;47692;53.714;11.372;2023-07-29T08:50:36;100008.91;;;20.93;95.33
61786;BME280;47692;53.714;11.372;2023-07-29T08:53:04;100011.06;;;20.88;94.52
61786;BME280;47692;53.714;11.372;2023-07-29T08:55:31;100007.47;;;20.89;96.38
61786;BME280;47692;53.714;11.372;2023-07-29T08:57:58;100008.69;;;20.96;96.92
61786;BME280;47692;53.714;11.372;2023-07-29T09:00:23;100004.56;;;20.92;96.83
61786;BME280;47692;53.714;11.372;2023-07-29T09:02:50;100013.25;;;20.94;96.27
61786;BME280;47692;53.714;11.372;2023-07-29T09:05:16;100020.38;;;20.94;97.04
61786;BME280;47692;53.714;11.372;2023-07-29T09:07:41;100012.03;;;20.87;96.83
61786;BME280;47692;53.714;11.372;2023-07-29T09:10:08;100010.59;;;20.83;99.11
61786;BME280;47692;53.714;11.372;2023-07-29T09:12:35;100006.84;;;20.97;100.00
61786;BME280;47692;53.714;11.372;2023-07-29T09:15:01;99995.41;;;20.96;100.00
61786;BME280;47692;53.714;11.372;2023-07-29T09:17:26;99995.16;;;20.99;100.00
61786;BME280;47692;53.714;11.372;2023-07-29T09:19:51;99992.16;;;21.04;99.54
61786;BME280;47692;53.714;11.372;2023-07-29T09:22:18;99994.19;;;21.12;99.61
61786;BME280;47692;53.714;11.372;2023-07-29T09:24:45;99984.44;;;21.12;98.18
61786;BME280;47692;53.714;11.372;2023-07-29T09:27:23;99979.50;;;21.19;99.91
61786;BME280;47692;53.714;11.372;2023-07-29T09:29:48;99980.69;;;21.26;99.62
61786;BME280;47692;53.714;11.372;2023-07-29T09:32:21;99985.16;;;21.37;100.00
61786;BME280;47692;53.714;11.372;2023-07-29T09:34:47;99984.28;;;21.48;98.07
61786;BME280;47692;53.714;11.372;2023-07-29T09:37:23;99982.00;;;21.43;96.67
61786;BME280;47692;53.714;11.372;2023-07-29T09:39:49;99971.28;;;21.34;96.40
61786;BME280;47692;53.714;11.372;2023-07-29T09:42:22;99969.81;;;21.29;95.49
61786;BME280;47692;53.714;11.372;2023-07-29T09:44:49;99977.56;;;21.21;96.69
61786;BME280;47692;53.714;11.372;2023-07-29T09:47:22;99967.88;;;21.31;97.84
61786;BME280;47692;53.714;11.372;2023-07-29T09:49:48;99969.22;;;21.26;97.39
61786;BME280;47692;53.714;11.372;2023-07-29T09:52:18;99976.00;;;21.30;97.72
61786;BME280;47692;53.714;11.372;2023-07-29T09:54:44;99966.19;;;21.30;97.74
61786;BME280;47692;53.714;11.372;2023-07-29T09:57:17;99971.78;;;21.27;96.43
61786;BME280;47692;53.714;11.372;2023-07-29T09:59:43;99971.03;;;21.25;96.66
61786;BME280;47692;53.714;11.372;2023-07-29T10:02:17;99957.53;;;21.28;96.22
61786;BME280;47692;53.714;11.372;2023-07-29T10:04:43;99970.06;;;21.38;94.70
61786;BME280;47692;53.714;11.372;2023-07-29T10:07:09;99962.84;;;21.28;94.60
61786;BME280;47692;53.714;11.372;2023-07-29T10:09:36;99959.19;;;21.29;93.26
61786;BME280;47692;53.714;11.372;2023-07-29T10:12:03;99960.88;;;21.30;93.82
61786;BME280;47692;53.714;11.372;2023-07-29T10:14:30;99951.72;;;21.35;94.80
61786;BME280;47692;53.714;11.372;2023-07-29T10:16:57;99961.84;;;21.41;93.44
61786;BME280;47692;53.714;11.372;2023-07-29T10:19:24;99956.53;;;21.41;92.38
61786;BME280;47692;53.714;11.372;2023-07-29T10:21:51;99961.84;;;21.41;91.03
61786;BME280;47692;53.714;11.372;2023-07-29T10:24:19;99961.59;;;21.44;91.20
61786;BME280;47692;53.714;11.372;2023-07-29T10:26:49;99962.34;;;21.57;92.30
61786;BME280;47692;53.714;11.372;2023-07-29T10:29:19;99962.03;;;21.72;90.83
61786;BME280;47692;53.714;11.372;2023-07-29T10:31:46;99967.84;;;21.66;89.46
61786;BME280;47692;53.714;11.372;2023-07-29T10:34:12;99968.34;;;21.71;89.16
61786;BME280;47692;53.714;11.372;2023-07-29T10:36:38;99970.22;;;21.80;89.46
61786;BME280;47692;53.714;11.372;2023-07-29T10:39:06;99961.25;;;21.92;89.10
61786;BME280;47692;53.714;11.372;2023-07-29T10:41:54;99962.53;;;21.77;88.06
61786;BME280;47692;53.714;11.372;2023-07-29T10:44:46;99942.34;;;21.74;89.40
61786;BME280;47692;53.714;11.372;2023-07-29T10:49:45;99952.66;;;21.45;94.63
61786;BME280;47692;53.714;11.372;2023-07-29T10:52:15;99952.94;;;21.30;97.14
61786;BME280;47692;53.714;11.372;2023-07-29T10:54:42;99971.41;;;21.09;100.00
61786;BME280;47692;53.714;11.372;2023-07-29T10:57:12;99951.66;;;20.44;100.00
61786;BME280;47692;53.714;11.372;2023-07-29T10:59:38;99944.53;;;19.97;100.00
61786;BME280;47692;53.714;11.372;2023-07-29T11:02:12;99943.47;;;19.76;100.00
61786;BME280;47692;53.714;11.372;2023-07-29T11:04:52;99948.25;;;19.70;100.00
61786;BME280;47692;53.714;11.372;2023-07-29T11:07:18;99952.06;;;19.66;100.00
61786;BME280;47692;53.714;11.372;2023-07-29T11:17:34;99962.84;;;19.76;100.00
61786;BME280;47692;53.714;11.372;2023-07-29T11:20:01;99963.91;;;19.74;100.00
61786;BME280;47692;53.714;11.372;2023-07-29T11:22:28;99968.25;;;19.75;100.00
61786;BME280;47692;53.714;11.372;2023-07-29T11:24:54;99974.78;;;19.82;100.00
61786;BME280;47692;53.714;11.372;2023-07-29T11:27:19;99974.59;;;19.85;100.00
61786;BME280;47692;53.714;11.372;2023-07-29T11:29:44;99974.88;;;19.93;100.00
61786;BME280;47692;53.714;11.372;2023-07-29T11:32:10;99978.03;;;19.98;100.00
61786;BME280;47692;53.714;11.372;2023-07-29T11:34:35;99969.56;;;19.93;100.00
61786;BME280;47692;53.714;11.372;2023-07-29T11:37:00;99964.41;;;19.92;100.00
61786;BME280;47692;53.714;11.372;2023-07-29T11:39:26;99970.91;;;19.75;100.00
61786;BME280;47692;53.714;11.372;2023-07-29T11:41:51;99960.50;;;19.72;100.00
61786;BME280;47692;53.714;11.372;2023-07-29T11:44:17;99964.16;;;19.70;100.00
61786;BME280;47692;53.714;11.372;2023-07-29T11:46:43;99963.09;;;19.60;100.00
61786;BME280;47692;53.714;11.372;2023-07-29T11:49:09;99962.91;;;19.63;100.00
61786;BME280;47692;53.714;11.372;2023-07-29T11:51:36;99962.38;;;19.58;100.00
61786;BME280;47692;53.714;11.372;2023-07-29T11:54:01;99967.78;;;19.57;100.00
61786;BME280;47692;53.714;11.372;2023-07-29T11:56:27;99963.09;;;19.60;100.00
61786;BME280;47692;53.714;11.372;2023-07-29T11:58:53;99970.53;;;19.55;100.00
61786;BME280;47692;53.714;11.372;2023-07-29T12:01:19;99967.38;;;19.50;100.00
61786;BME280;47692;53.714;11.372;2023-07-29T12:03:44;99963.56;;;19.54;100.00
61786;BME280;47692;53.714;11.372;2023-07-29T12:06:10;99965.94;;;19.46;100.00
61786;BME280;47692;53.714;11.372;2023-07-29T12:08:36;99974.19;;;19.41;100.00
61786;BME280;47692;53.714;11.372;2023-07-29T12:11:01;99955.97;;;19.36;100.00
61786;BME280;47692;53.714;11.372;2023-07-29T12:13:27;99958.50;;;19.38;100.00
61786;BME280;47692;53.714;11.372;2023-07-29T12:16:00;99966.56;;;19.36;100.00
61786;BME280;47692;53.714;11.372;2023-07-29T12:18:30;99964.88;;;19.35;100.00
61786;BME280;47692;53.714;11.372;2023-07-29T12:20:56;99956.91;;;19.48;100.00
61786;BME280;47692;53.714;11.372;2023-07-29T12:23:24;99966.00;;;19.57;100.00
61786;BME280;47692;53.714;11.372;2023-07-29T12:25:51;99966.50;;;19.62;100.00
61786;BME280;47692;53.714;11.372;2023-07-29T12:28:17;99966.34;;;19.77;100.00
61786;BME280;47692;53.714;11.372;2023-07-29T12:30:42;99964.00;;;19.85;100.00
61786;BME280;47692;53.714;11.372;2023-07-29T12:33:08;99963.47;;;19.80;100.00
61786;BME280;47692;53.714;11.372;2023-07-29T12:35:37;99962.50;;;19.81;100.00
61786;BME280;47692;53.714;11.372;2023-07-29T12:38:02;99961.63;;;19.93;100.00
61786;BME280;47692;53.714;11.372;2023-07-29T12:40:28;99962.19;;;19.85;100.00
61786;BME280;47692;53.714;11.372;2023-07-29T12:42:54;99957.50;;;19.89;100.00
61786;BME280;47692;53.714;11.372;2023-07-29T12:45:19;99964.50;;;19.90;100.00
61786;BME280;47692;53.714;11.372;2023-07-29T12:47:47;99958.47;;;19.88;100.00